Van Wert, Pennsylvania
Current Conditions -  °F | °C
As of 11:53 PM on Saturday 22 Nov 2014 (Local Time) from KSEG Reporting Station
Broken Clouds Broken Clouds  
Wind Chill: 36°   Ceiling: 11000
Heat Index: 39°   Visibility: 10mi
Dew Point: 18°   Wind: 5mph
Humidity: 43%   Direction: 230°SW
Pressure: 30.18"   Gusts: NA
Location:  40.5853°N, 77.3611°W
Report Text: KSEG 230453Z AUTO 23004KT 10SM BKN110 04/M08 A3018 RMK AO2 SLP223 T00391078 400441106
Loading
Personal Weather Stations






























Interactive Weather Map New forecast layout! Learn more

10-Day Weather Forecast

Advertisements
Track Severe Weather on mobile